Lingle, Wyoming
Current Conditions -  °F | °C
As of 12:53 PM on Friday 28 Nov 2014 (Local Time) from KTOR Reporting Station
Clear Clear  
Wind Chill: 18°   Ceiling: Unl
Heat Index: 18°   Visibility: 10mi
Dew Point: -9°   Wind: 24mph
Humidity: 15%   Direction: 280°W
Pressure: 29.72"   Gusts: 33mph
Location:  42.14°N, 104.35°W
Report Text: KTOR 281953Z AUTO 28021G29KT 10SM CLR 18/M09 A2972 RMK AO2 PK WND 29029/1952 SLP032 T01831094
Loading
Personal Weather Stations






























Interactive Weather Map New forecast layout! Learn more

10-Day Weather Forecast

Advertisements
Track Severe Weather on mobile